Kentfield, California
Current Conditions -  °F | °C
As of 3:15 PM on Tuesday 25 Nov 2014 (Local Time) from KDVO Reporting Station
Clear Clear  
Wind Chill: 64°   Ceiling: Unl
Heat Index: 64°   Visibility: NA
Dew Point: 48°   Wind: 7mph
Humidity: 56%   Direction: 170°S
Pressure: 30.39"   Gusts: NA
Location:  37.95°N, 122.54°W
Report Text: KDVO 252315Z AUTO 17006KT CLR 18/09 A3039 RMK AO2
Loading
Personal Weather Stations






























Interactive Weather Map New forecast layout! Learn more

10-Day Weather Forecast

Advertisements
Track Severe Weather on mobile